createdAt,value
2023-05-19T00:00:33.368Z,77.55
2023-05-19T00:01:25.189Z,77.55
2023-05-19T00:02:00.513Z,77.66
2023-05-19T00:02:34.379Z,77.66
2023-05-19T00:03:09.301Z,77.78
2023-05-19T00:03:54.406Z,77.90
2023-05-19T00:04:28.155Z,77.92
2023-05-19T00:05:02.395Z,77.99
2023-05-19T00:05:40.919Z,77.85
2023-05-19T00:06:14.886Z,77.91
2023-05-19T00:06:51.610Z,78.03
2023-05-19T00:07:29.284Z,77.88
2023-05-19T00:08:04.911Z,78.10
2023-05-19T00:08:39.203Z,78.05
2023-05-19T00:09:12.911Z,78.13
2023-05-19T00:09:46.626Z,78.17
2023-05-19T00:10:22.423Z,78.29
2023-05-19T00:11:00.201Z,78.23
2023-05-19T00:11:36.888Z,78.21
2023-05-19T00:12:10.992Z,78.29
2023-05-19T00:12:45.305Z,78.35
2023-05-19T00:13:19.418Z,78.42
2023-05-19T00:13:54.460Z,78.32
2023-05-19T00:14:29.253Z,78.41
2023-05-19T00:15:02.857Z,78.44
2023-05-19T00:15:36.784Z,78.48
2023-05-19T00:16:10.950Z,78.46
2023-05-19T00:16:44.491Z,78.15
2023-05-19T00:17:18.175Z,78.24
2023-05-19T00:17:52.568Z,78.24
2023-05-19T00:18:26.791Z,78.35
2023-05-19T00:19:01.973Z,78.32
2023-05-19T00:19:35.460Z,78.39
2023-05-19T00:20:09.220Z,78.35
2023-05-19T00:20:43.246Z,78.19
2023-05-19T00:21:17.985Z,78.11
2023-05-19T00:21:51.519Z,78.11
2023-05-19T00:22:24.890Z,78.11
2023-05-19T00:22:58.153Z,78.13
2023-05-19T00:23:31.440Z,78.10
2023-05-19T00:24:05.877Z,78.08
2023-05-19T00:24:39.181Z,78.14
2023-05-19T00:25:12.571Z,78.30
2023-05-19T00:25:45.799Z,78.24
2023-05-19T00:26:19.245Z,78.17
2023-05-19T00:26:58.236Z,78.19
2023-05-19T00:27:31.593Z,78.22
2023-05-19T00:28:05.007Z,78.28
2023-05-19T00:28:38.256Z,78.30
2023-05-19T00:29:11.754Z,78.35
2023-05-19T00:29:44.982Z,78.34
2023-05-19T00:30:18.550Z,78.44
2023-05-19T00:30:52.065Z,78.32
2023-05-19T00:31:25.386Z,78.42
2023-05-19T00:31:58.799Z,78.09
2023-05-19T00:32:32.119Z,78.07
2023-05-19T00:33:05.472Z,78.12
2023-05-19T00:33:38.793Z,78.13
2023-05-19T00:34:12.051Z,78.10
2023-05-19T00:34:47.993Z,77.98
2023-05-19T00:35:21.927Z,77.93
2023-05-19T00:35:55.863Z,77.96
2023-05-19T00:36:29.440Z,77.80
2023-05-19T00:37:02.750Z,77.72
2023-05-19T00:37:36.109Z,77.70
2023-05-19T00:38:09.400Z,77.73
2023-05-19T00:38:42.748Z,77.66
2023-05-19T00:39:16.024Z,77.73
2023-05-19T00:39:49.568Z,77.85
2023-05-19T00:40:24.822Z,77.56
2023-05-19T00:40:59.961Z,77.74
2023-05-19T00:41:33.508Z,77.85
2023-05-19T00:42:07.007Z,78.02
2023-05-19T00:42:41.055Z,78.04
2023-05-19T00:43:14.640Z,77.97
2023-05-19T00:43:47.932Z,77.82
2023-05-19T00:44:21.371Z,77.80
2023-05-19T00:44:54.904Z,77.82
2023-05-19T00:45:29.111Z,77.89
2023-05-19T00:46:03.343Z,77.75
2023-05-19T00:46:38.148Z,77.71
2023-05-19T00:47:11.562Z,77.78
2023-05-19T00:47:45.119Z,77.38
2023-05-19T00:48:18.857Z,77.35
2023-05-19T00:48:52.263Z,77.40
2023-05-19T00:49:25.848Z,77.54
2023-05-19T00:49:59.743Z,77.50
2023-05-19T00:50:33.646Z,77.54
2023-05-19T00:51:07.503Z,77.61
2023-05-19T00:51:41.541Z,77.81
2023-05-19T00:52:15.459Z,77.84
2023-05-19T00:52:49.061Z,77.99
2023-05-19T00:53:25.733Z,77.80
2023-05-19T00:53:59.301Z,77.85
2023-05-19T00:54:34.194Z,77.89
2023-05-19T00:55:09.312Z,77.82
2023-05-19T00:55:43.131Z,77.96
2023-05-19T00:56:18.737Z,78.08
2023-05-19T00:56:52.103Z,77.98
2023-05-19T00:57:27.196Z,78.11
2023-05-19T00:58:00.960Z,78.19
2023-05-19T00:58:36.396Z,78.20
2023-05-19T00:59:12.232Z,78.25
2023-05-19T00:59:45.950Z,78.16
2023-05-19T01:00:19.275Z,78.22
2023-05-19T01:00:53.486Z,78.12
2023-05-19T01:01:28.051Z,77.94
2023-05-19T01:02:03.113Z,77.86
2023-05-19T01:02:40.210Z,77.96
2023-05-19T01:03:15.381Z,77.90
2023-05-19T01:03:49.451Z,77.91
2023-05-19T01:04:25.797Z,77.90
2023-05-19T01:05:00.119Z,77.92
2023-05-19T01:05:33.628Z,77.88
2023-05-19T01:06:07.638Z,78.07
2023-05-19T01:06:41.103Z,78.00
2023-05-19T01:07:15.607Z,78.12
2023-05-19T01:07:53.728Z,78.24
2023-05-19T01:08:27.902Z,78.20
2023-05-19T01:09:01.391Z,78.22
2023-05-19T01:09:35.045Z,78.41
2023-05-19T01:10:09.230Z,78.24
2023-05-19T01:10:42.682Z,78.35
2023-05-19T01:11:16.095Z,78.33
2023-05-19T01:11:50.507Z,78.26
2023-05-19T01:12:24.117Z,78.23
2023-05-19T01:12:57.620Z,78.32
2023-05-19T01:13:31.848Z,78.34
2023-05-19T01:14:05.321Z,78.48
2023-05-19T01:14:38.692Z,78.34
2023-05-19T01:15:12.958Z,78.37
2023-05-19T01:15:56.079Z,78.25
2023-05-19T01:16:59.940Z,78.28
2023-05-19T01:17:35.996Z,78.24
2023-05-19T01:18:14.394Z,78.44
2023-05-19T01:18:56.422Z,78.54
2023-05-19T01:19:47.152Z,78.52
2023-05-19T01:20:32.820Z,78.59
2023-05-19T01:21:39.137Z,78.69
2023-05-19T01:22:50.636Z,78.60
2023-05-19T01:24:01.713Z,78.74
2023-05-19T01:24:35.086Z,78.87
2023-05-19T01:25:29.996Z,78.90
2023-05-19T01:26:41.565Z,78.97
2023-05-19T01:27:24.291Z,79.02
2023-05-19T01:28:16.289Z,79.17
2023-05-19T01:29:16.928Z,79.24
2023-05-19T01:30:09.023Z,78.90
2023-05-19T01:30:49.314Z,79.18
2023-05-19T01:31:25.722Z,79.26
2023-05-19T01:32:01.325Z,79.30
2023-05-19T01:32:36.268Z,79.15
2023-05-19T01:33:14.577Z,79.16
2023-05-19T01:33:49.598Z,79.22
2023-05-19T01:34:24.475Z,79.35
2023-05-19T01:34:59.110Z,79.27
2023-05-19T01:35:35.048Z,79.19
2023-05-19T01:36:08.968Z,79.30
2023-05-19T01:36:45.205Z,79.26
2023-05-19T01:37:21.890Z,79.30
2023-05-19T01:37:58.562Z,79.29
2023-05-19T01:38:34.379Z,79.27
2023-05-19T01:39:08.326Z,79.32
2023-05-19T01:39:43.052Z,79.30
2023-05-19T01:40:16.734Z,79.24
2023-05-19T01:40:51.905Z,79.24
2023-05-19T01:41:26.673Z,79.31
2023-05-19T01:42:01.859Z,79.21
2023-05-19T01:42:38.175Z,79.24
2023-05-19T01:43:19.095Z,79.31
2023-05-19T01:43:52.608Z,79.40
2023-05-19T01:44:26.238Z,79.47
2023-05-19T01:45:00.354Z,79.35
2023-05-19T01:45:34.575Z,79.40
2023-05-19T01:46:08.684Z,79.44
2023-05-19T01:46:42.435Z,79.49
2023-05-19T01:47:16.344Z,79.55
2023-05-19T01:47:53.591Z,79.54
2023-05-19T01:48:27.809Z,79.49
2023-05-19T01:50:44.687Z,79.54
2023-05-19T01:51:18.106Z,79.69
2023-05-19T01:51:53.264Z,79.56
2023-05-19T01:52:28.686Z,79.60
2023-05-19T01:53:02.304Z,79.60
2023-05-19T01:53:35.910Z,79.73
2023-05-19T01:54:09.171Z,79.70
2023-05-19T01:54:42.634Z,79.65
2023-05-19T01:55:16.165Z,79.66
2023-05-19T01:55:54.150Z,79.50
2023-05-19T01:56:56.169Z,79.49
2023-05-19T01:58:14.366Z,79.44
2023-05-19T01:58:53.581Z,79.54
2023-05-19T01:59:45.502Z,79.73
2023-05-19T02:00:29.549Z,79.82
2023-05-19T02:01:15.247Z,79.84
2023-05-19T02:01:58.077Z,79.85
2023-05-19T02:03:06.601Z,79.85
2023-05-19T02:03:48.749Z,80.02
2023-05-19T02:04:40.108Z,80.02
2023-05-19T02:05:28.913Z,80.21
2023-05-19T02:06:35.199Z,80.18
2023-05-19T02:07:45.289Z,80.28
2023-05-19T02:08:34.697Z,80.34
2023-05-19T02:09:16.425Z,80.52
2023-05-19T02:10:07.058Z,80.61
2023-05-19T02:10:45.887Z,80.67
2023-05-19T02:11:38.228Z,80.65
2023-05-19T02:12:24.582Z,80.76
2023-05-19T02:13:01.652Z,80.79
2023-05-19T02:13:41.135Z,80.74
2023-05-19T02:14:20.877Z,80.69
2023-05-19T02:15:02.774Z,80.74
2023-05-19T02:15:42.326Z,80.74
2023-05-19T02:16:17.795Z,80.69
2023-05-19T02:16:52.729Z,80.54
2023-05-19T02:17:33.299Z,80.47
2023-05-19T02:18:10.528Z,80.23
2023-05-19T02:18:45.660Z,80.33
2023-05-19T02:19:24.695Z,80.35
2023-05-19T02:19:58.148Z,80.41
2023-05-19T02:20:32.304Z,80.36
2023-05-19T02:21:05.853Z,80.38
2023-05-19T02:21:39.090Z,80.38
2023-05-19T02:22:12.445Z,80.39
2023-05-19T02:22:46.076Z,80.50
2023-05-19T02:23:19.711Z,80.33
2023-05-19T02:23:53.047Z,80.42
2023-05-19T02:24:26.639Z,80.57
2023-05-19T02:25:00.404Z,80.42
2023-05-19T02:25:34.310Z,80.54
2023-05-19T02:26:08.854Z,80.49
2023-05-19T02:26:42.411Z,80.42
2023-05-19T02:27:15.584Z,80.26
2023-05-19T02:27:49.768Z,80.30
2023-05-19T02:28:23.309Z,80.45
2023-05-19T02:28:56.491Z,80.43
2023-05-19T02:29:31.103Z,80.44
2023-05-19T02:30:05.851Z,80.50
2023-05-19T02:30:39.166Z,80.50
2023-05-19T02:31:12.482Z,80.56
2023-05-19T02:31:45.904Z,80.49
2023-05-19T02:32:20.894Z,80.47
2023-05-19T02:32:54.563Z,80.42
2023-05-19T02:33:27.928Z,80.39
2023-05-19T02:34:01.350Z,80.38
2023-05-19T02:34:34.974Z,80.44
2023-05-19T02:35:11.590Z,80.47
2023-05-19T02:35:46.215Z,80.50
2023-05-19T02:36:21.109Z,80.43
2023-05-19T02:36:54.418Z,80.41
2023-05-19T02:37:28.734Z,80.44
2023-05-19T02:38:03.043Z,80.37
2023-05-19T02:38:36.584Z,80.36
2023-05-19T02:39:13.181Z,80.34
2023-05-19T02:39:46.430Z,80.32
2023-05-19T02:40:20.358Z,80.36
2023-05-19T02:40:53.689Z,80.44
2023-05-19T02:41:27.041Z,80.30
2023-05-19T02:42:00.690Z,80.19
2023-05-19T02:42:33.969Z,80.08
2023-05-19T02:43:08.358Z,79.92
2023-05-19T02:43:41.911Z,79.99
2023-05-19T02:44:15.275Z,79.87
2023-05-19T02:44:49.036Z,79.82
2023-05-19T02:45:22.493Z,79.81
2023-05-19T02:45:55.872Z,79.88
2023-05-19T02:46:29.168Z,80.00
2023-05-19T02:47:02.616Z,80.07
2023-05-19T02:47:37.174Z,80.16
2023-05-19T02:48:10.912Z,80.16
2023-05-19T02:48:44.314Z,80.03
2023-05-19T02:49:17.618Z,80.00
2023-05-19T02:49:51.019Z,80.09
2023-05-19T02:50:24.631Z,80.19
2023-05-19T02:50:57.934Z,80.03
2023-05-19T02:51:31.330Z,80.10
2023-05-19T02:52:06.016Z,80.08
2023-05-19T02:52:39.369Z,80.07
2023-05-19T02:53:12.688Z,80.20
2023-05-19T02:53:46.160Z,80.21
2023-05-19T02:54:19.448Z,80.24
2023-05-19T02:54:52.749Z,80.18
2023-05-19T02:55:26.116Z,80.27
2023-05-19T02:55:59.374Z,80.23
2023-05-19T02:56:32.595Z,80.29
2023-05-19T02:57:06.929Z,80.28
2023-05-19T02:57:40.163Z,80.32
2023-05-19T02:58:13.452Z,80.41
2023-05-19T02:58:46.864Z,80.37
2023-05-19T02:59:20.182Z,80.33
2023-05-19T02:59:53.444Z,80.47
2023-05-19T03:00:26.779Z,80.42
2023-05-19T03:01:00.161Z,80.41
2023-05-19T03:01:33.941Z,80.44
2023-05-19T03:02:07.497Z,80.58
2023-05-19T03:02:41.686Z,80.61
2023-05-19T03:03:15.147Z,80.53
2023-05-19T03:03:48.665Z,80.66
2023-05-19T03:04:22.286Z,80.58
2023-05-19T03:04:55.737Z,80.40
2023-05-19T03:05:30.596Z,80.32
2023-05-19T03:06:05.238Z,80.28
2023-05-19T03:06:39.007Z,80.31
2023-05-19T03:07:16.549Z,80.38
2023-05-19T03:07:50.254Z,80.35
2023-05-19T03:08:23.646Z,80.47
2023-05-19T03:08:56.875Z,80.49
2023-05-19T03:09:30.345Z,80.42
2023-05-19T03:10:04.414Z,80.46
2023-05-19T03:10:37.778Z,80.52
2023-05-19T03:11:11.072Z,80.46
2023-05-19T03:11:44.420Z,80.53
2023-05-19T03:12:17.768Z,80.60
2023-05-19T03:12:51.145Z,80.52
2023-05-19T03:13:24.476Z,80.53
2023-05-19T03:13:58.766Z,80.46
2023-05-19T03:14:33.760Z,80.45
2023-05-19T03:15:07.865Z,80.48
2023-05-19T03:15:42.987Z,80.41
2023-05-19T03:16:16.305Z,80.34
2023-05-19T03:16:49.950Z,80.39
2023-05-19T03:17:23.402Z,80.33
2023-05-19T03:17:57.339Z,80.36
2023-05-19T03:18:30.936Z,80.24
2023-05-19T03:19:04.331Z,80.29
2023-05-19T03:19:37.736Z,80.32
2023-05-19T03:20:11.360Z,80.30
2023-05-19T03:20:44.998Z,80.30
2023-05-19T03:21:18.280Z,80.24
2023-05-19T03:21:51.661Z,80.30
2023-05-19T03:22:24.908Z,80.39
2023-05-19T03:22:58.400Z,80.40
2023-05-19T03:23:31.826Z,80.44
2023-05-19T03:24:05.370Z,80.49
2023-05-19T03:24:39.870Z,80.54
2023-05-19T03:25:14.582Z,80.57
2023-05-19T03:25:48.524Z,80.71
2023-05-19T03:26:23.234Z,80.69
2023-05-19T03:26:56.629Z,80.76
2023-05-19T03:27:37.386Z,80.74
2023-05-19T03:28:30.198Z,80.73
2023-05-19T03:29:13.105Z,80.92
2023-05-19T03:29:46.342Z,80.99
2023-05-19T03:30:20.355Z,81.03
2023-05-19T03:31:09.128Z,81.05
2023-05-19T03:31:44.889Z,81.12
2023-05-19T03:32:18.673Z,81.07
2023-05-19T03:32:52.850Z,81.11
2023-05-19T03:33:28.244Z,81.16
2023-05-19T03:34:02.140Z,81.17
2023-05-19T03:34:35.655Z,81.18
2023-05-19T03:35:09.341Z,81.18
2023-05-19T03:35:44.595Z,81.28
2023-05-19T03:36:18.337Z,81.20
2023-05-19T03:36:51.683Z,81.21
2023-05-19T03:37:25.128Z,81.19
2023-05-19T03:37:58.505Z,81.29
2023-05-19T03:38:32.233Z,81.35
2023-05-19T03:39:07.197Z,81.32
2023-05-19T03:39:40.694Z,81.40
2023-05-19T03:40:14.458Z,81.39
2023-05-19T03:40:48.870Z,81.41
2023-05-19T03:41:22.514Z,81.45
2023-05-19T03:41:56.524Z,81.38
2023-05-19T03:42:30.038Z,81.30
2023-05-19T03:43:03.612Z,81.29
2023-05-19T03:43:37.501Z,81.24
2023-05-19T03:44:12.019Z,81.30
2023-05-19T03:44:45.866Z,81.28
2023-05-19T03:45:19.659Z,81.23
2023-05-19T03:45:54.452Z,81.15
2023-05-19T03:46:53.827Z,81.23
2023-05-19T03:47:47.651Z,81.27
2023-05-19T03:48:51.678Z,81.17
2023-05-19T03:49:43.342Z,81.33
2023-05-19T03:50:29.371Z,81.39
2023-05-19T03:51:09.239Z,81.41
2023-05-19T03:51:43.344Z,81.51
2023-05-19T03:52:28.279Z,81.49
2023-05-19T03:53:06.838Z,81.62
2023-05-19T03:53:45.829Z,81.59
2023-05-19T03:54:19.285Z,81.72
2023-05-19T03:54:53.149Z,81.73
2023-05-19T03:55:30.075Z,81.84
2023-05-19T03:56:03.783Z,81.75
2023-05-19T03:56:39.964Z,81.81
2023-05-19T03:57:15.210Z,81.75
2023-05-19T03:57:48.948Z,81.71
2023-05-19T03:58:22.422Z,81.58
2023-05-19T03:58:55.675Z,81.56
2023-05-19T03:59:28.954Z,81.58
2023-05-19T04:00:03.096Z,81.51
2023-05-19T04:00:45.366Z,81.52
2023-05-19T04:01:18.748Z,81.54
2023-05-19T04:01:52.989Z,81.55
2023-05-19T04:02:26.480Z,81.57
2023-05-19T04:03:00.754Z,81.62
2023-05-19T04:03:34.302Z,81.60
2023-05-19T04:04:08.551Z,81.54
2023-05-19T04:04:42.412Z,81.51
2023-05-19T04:05:17.547Z,81.53
2023-05-19T04:05:51.949Z,81.39
2023-05-19T04:06:25.522Z,81.51
2023-05-19T04:07:03.969Z,81.27
2023-05-19T04:07:37.348Z,81.33
2023-05-19T04:08:10.653Z,81.35
2023-05-19T04:08:44.524Z,81.33
2023-05-19T04:09:19.797Z,81.31
2023-05-19T04:09:53.199Z,81.36
2023-05-19T04:10:26.978Z,81.23
2023-05-19T04:11:01.688Z,81.37
2023-05-19T04:11:36.859Z,81.30
2023-05-19T04:12:10.183Z,81.18
2023-05-19T04:12:43.523Z,80.90
2023-05-19T04:13:16.816Z,80.79
2023-05-19T04:13:50.098Z,80.80
2023-05-19T04:14:23.863Z,80.61
2023-05-19T04:14:57.132Z,80.54
2023-05-19T04:15:31.313Z,80.66
2023-05-19T04:16:05.059Z,80.68
2023-05-19T04:16:38.615Z,80.77
2023-05-19T04:17:12.199Z,80.74
2023-05-19T04:17:46.256Z,80.87
2023-05-19T04:18:19.656Z,80.84
2023-05-19T04:18:53.049Z,80.94
2023-05-19T04:19:26.493Z,80.93
2023-05-19T04:20:01.784Z,80.87
2023-05-19T04:20:35.295Z,80.94
2023-05-19T04:21:09.936Z,80.89
2023-05-19T04:21:44.973Z,80.88
2023-05-19T04:22:18.276Z,80.84
2023-05-19T04:22:51.715Z,80.88
2023-05-19T04:23:24.992Z,80.81
2023-05-19T04:24:00.213Z,80.88
2023-05-19T04:24:34.129Z,80.89
2023-05-19T04:25:07.840Z,80.89
2023-05-19T04:25:42.468Z,80.85
2023-05-19T04:26:16.539Z,80.71
2023-05-19T04:26:50.107Z,80.73
2023-05-19T04:27:23.968Z,80.77
2023-05-19T04:27:58.041Z,80.59
2023-05-19T04:28:31.438Z,80.30
2023-05-19T04:29:05.232Z,80.54
2023-05-19T04:29:40.261Z,80.48
2023-05-19T04:30:18.542Z,80.59
2023-05-19T04:30:52.566Z,80.45
2023-05-19T04:31:27.718Z,80.46
2023-05-19T04:32:01.226Z,80.64
2023-05-19T04:32:37.807Z,80.70
2023-05-19T04:33:11.886Z,80.68
2023-05-19T04:33:46.321Z,80.68
2023-05-19T04:34:20.246Z,80.75
2023-05-19T04:34:53.960Z,80.62
2023-05-19T04:35:30.215Z,80.44
2023-05-19T04:36:08.618Z,80.49
2023-05-19T04:36:42.412Z,80.46
2023-05-19T04:37:20.330Z,80.61
2023-05-19T04:37:55.849Z,80.66
2023-05-19T04:38:32.528Z,80.82
2023-05-19T04:39:12.339Z,80.90
2023-05-19T04:39:48.475Z,80.89
2023-05-19T04:40:23.995Z,80.77
2023-05-19T04:41:00.821Z,80.87
2023-05-19T04:41:34.937Z,80.74
2023-05-19T04:42:10.592Z,80.79
2023-05-19T04:42:46.181Z,80.81
2023-05-19T04:43:19.656Z,80.75
2023-05-19T04:43:53.514Z,80.68
2023-05-19T04:44:26.856Z,80.68
2023-05-19T04:45:00.166Z,80.63
2023-05-19T04:45:34.430Z,80.63
2023-05-19T04:46:13.450Z,80.50
2023-05-19T04:46:50.342Z,80.37
2023-05-19T04:47:28.349Z,80.40
2023-05-19T04:48:02.351Z,80.45
2023-05-19T04:48:36.091Z,80.35
2023-05-19T04:49:12.797Z,80.42
2023-05-19T04:49:46.167Z,80.46
2023-05-19T04:50:19.736Z,80.49
2023-05-19T04:50:53.337Z,80.39
2023-05-19T04:51:29.829Z,80.33
2023-05-19T04:52:11.082Z,80.34
2023-05-19T04:52:48.463Z,80.20
2023-05-19T04:53:22.192Z,80.27
2023-05-19T04:53:56.311Z,80.51
2023-05-19T04:54:29.559Z,80.52
2023-05-19T04:55:03.019Z,80.55
2023-05-19T04:55:39.108Z,80.53
2023-05-19T04:56:15.877Z,80.23
2023-05-19T04:56:49.949Z,80.54
2023-05-19T04:57:23.409Z,80.65
2023-05-19T04:57:56.723Z,80.66
2023-05-19T04:58:30.423Z,80.62
2023-05-19T04:59:04.095Z,80.67
2023-05-19T04:59:38.279Z,80.66
2023-05-19T05:00:14.186Z,80.58
2023-05-19T05:01:01.215Z,80.58
2023-05-19T05:01:34.908Z,80.71
2023-05-19T05:02:08.340Z,80.63
2023-05-19T05:02:44.084Z,80.53
2023-05-19T05:03:18.030Z,80.38
2023-05-19T05:03:56.194Z,80.30
2023-05-19T05:04:29.684Z,80.31
2023-05-19T05:05:06.808Z,80.34
2023-05-19T05:05:40.695Z,80.16
2023-05-19T05:06:14.592Z,79.96
2023-05-19T05:06:48.917Z,79.77
2023-05-19T05:07:23.137Z,79.35
2023-05-19T05:07:57.767Z,79.01
2023-05-19T05:08:32.320Z,78.97
2023-05-19T05:09:05.597Z,78.85
2023-05-19T05:09:39.016Z,78.82
2023-05-19T05:10:13.221Z,79.05
2023-05-19T05:10:46.790Z,78.94
2023-05-19T05:11:20.814Z,78.96
2023-05-19T05:11:54.598Z,78.88
2023-05-19T05:12:28.336Z,78.71
2023-05-19T05:13:02.236Z,78.53
2023-05-19T05:13:36.869Z,78.07
2023-05-19T05:14:10.675Z,78.08
2023-05-19T05:14:44.585Z,77.95
2023-05-19T05:15:18.544Z,77.96
2023-05-19T05:15:52.636Z,78.32
2023-05-19T05:16:27.150Z,78.67
2023-05-19T05:17:01.714Z,78.77
2023-05-19T05:17:35.707Z,78.57
2023-05-19T05:18:09.563Z,78.38
2023-05-19T05:18:44.843Z,78.26
2023-05-19T05:19:19.197Z,78.26
2023-05-19T05:19:53.161Z,78.57
2023-05-19T05:20:27.508Z,78.52
2023-05-19T05:21:01.725Z,78.25
2023-05-19T05:21:35.872Z,78.32
2023-05-19T05:22:09.487Z,78.32
2023-05-19T05:22:45.982Z,78.12
2023-05-19T05:23:19.742Z,78.22
2023-05-19T05:23:54.281Z,78.03
2023-05-19T05:24:28.288Z,77.83
2023-05-19T05:25:05.286Z,77.86
2023-05-19T05:25:39.115Z,77.59
2023-05-19T05:26:23.384Z,77.67
2023-05-19T05:26:59.168Z,77.82
2023-05-19T05:27:32.924Z,77.97
2023-05-19T05:28:06.449Z,78.07
2023-05-19T05:28:41.740Z,78.05
2023-05-19T05:29:15.108Z,77.87
2023-05-19T05:29:48.467Z,77.49
2023-05-19T05:30:22.058Z,77.54
2023-05-19T05:30:57.603Z,77.55
2023-05-19T05:31:31.617Z,77.51
2023-05-19T05:32:05.480Z,77.73
2023-05-19T05:32:39.668Z,77.68
2023-05-19T05:33:18.583Z,77.85
2023-05-19T05:33:52.841Z,77.81
2023-05-19T05:34:28.709Z,77.91
2023-05-19T05:35:02.462Z,78.13
2023-05-19T05:35:37.717Z,78.08
2023-05-19T05:36:12.733Z,78.15
2023-05-19T05:36:46.055Z,78.23
2023-05-19T05:37:19.410Z,78.17
2023-05-19T05:37:52.737Z,77.99
2023-05-19T05:38:26.152Z,77.93
2023-05-19T05:38:59.778Z,77.68
2023-05-19T05:39:33.102Z,77.59
2023-05-19T05:40:07.451Z,77.86
2023-05-19T05:40:41.166Z,78.02
2023-05-19T05:41:16.304Z,78.03
2023-05-19T05:41:49.794Z,78.21
2023-05-19T05:42:23.143Z,78.35
2023-05-19T05:42:57.039Z,78.33
2023-05-19T05:43:30.762Z,77.83
2023-05-19T05:44:06.185Z,77.87
2023-05-19T05:44:39.674Z,78.20
2023-05-19T05:45:13.849Z,78.17
2023-05-19T05:45:47.397Z,78.32
2023-05-19T05:46:20.950Z,78.29
2023-05-19T05:46:54.613Z,78.36
2023-05-19T05:47:28.537Z,77.94
2023-05-19T05:48:02.365Z,77.59
2023-05-19T05:48:37.187Z,77.46
2023-05-19T05:49:12.772Z,77.73
2023-05-19T05:49:49.441Z,77.79
2023-05-19T05:50:23.534Z,77.96
2023-05-19T05:50:57.900Z,77.88
2023-05-19T05:51:33.983Z,77.57
2023-05-19T05:52:09.335Z,77.17
2023-05-19T05:52:48.730Z,76.95
2023-05-19T05:53:25.362Z,76.98
2023-05-19T05:54:01.037Z,76.88
2023-05-19T05:54:39.589Z,76.54
2023-05-19T05:55:14.321Z,76.74
2023-05-19T05:55:48.355Z,76.73
2023-05-19T05:56:22.344Z,76.94
2023-05-19T05:56:58.249Z,76.92
2023-05-19T05:57:31.755Z,76.12
2023-05-19T05:58:05.785Z,76.45
2023-05-19T05:58:40.893Z,76.58
2023-05-19T05:59:14.869Z,76.48
2023-05-19T05:59:48.374Z,76.25
2023-05-19T06:00:22.641Z,76.50
2023-05-19T06:00:58.215Z,75.88
2023-05-19T06:01:33.645Z,76.04
2023-05-19T06:02:08.847Z,76.03
2023-05-19T06:02:50.762Z,76.12
2023-05-19T06:03:26.341Z,76.10
2023-05-19T06:04:00.008Z,75.97
2023-05-19T06:04:33.433Z,75.86
2023-05-19T06:05:07.091Z,76.11
2023-05-19T06:05:40.845Z,76.13
2023-05-19T06:06:15.190Z,76.18
2023-05-19T06:06:48.574Z,75.68
2023-05-19T06:07:24.642Z,74.91
2023-05-19T06:07:58.084Z,74.90
2023-05-19T06:08:32.970Z,74.86
2023-05-19T06:09:06.474Z,74.97
2023-05-19T06:09:39.888Z,75.17
2023-05-19T06:10:13.968Z,75.08
2023-05-19T06:10:47.609Z,75.01
2023-05-19T06:11:22.130Z,74.67
2023-05-19T06:11:55.427Z,75.10
2023-05-19T06:12:29.010Z,75.16
2023-05-19T06:13:02.390Z,75.20
2023-05-19T06:13:36.652Z,75.13
2023-05-19T06:14:10.813Z,74.93
2023-05-19T06:15:12.944Z,74.65
2023-05-19T06:16:21.360Z,75.33
2023-05-19T06:16:54.950Z,75.63
2023-05-19T06:17:28.227Z,75.55
2023-05-19T06:18:01.844Z,75.42
2023-05-19T06:18:36.051Z,75.18
2023-05-19T06:19:10.167Z,74.41
2023-05-19T06:19:43.497Z,74.40
2023-05-19T06:20:16.827Z,74.64
2023-05-19T06:20:50.392Z,74.67
2023-05-19T06:21:23.772Z,74.55
2023-05-19T06:21:57.284Z,74.45
2023-05-19T06:22:31.093Z,74.44
2023-05-19T06:23:04.402Z,74.27
2023-05-19T06:23:37.764Z,74.03
2023-05-19T06:24:11.558Z,74.12
2023-05-19T06:24:44.914Z,73.99
2023-05-19T06:25:18.299Z,73.99
2023-05-19T06:25:51.667Z,74.41
2023-05-19T06:26:24.993Z,74.22
2023-05-19T06:26:58.321Z,74.46
2023-05-19T06:27:33.944Z,74.48
2023-05-19T06:28:08.384Z,73.81
2023-05-19T06:28:41.635Z,74.30
2023-05-19T06:29:15.020Z,73.97
2023-05-19T06:29:48.449Z,73.75
2023-05-19T06:30:21.828Z,72.92
2023-05-19T06:31:02.580Z,73.39
2023-05-19T06:31:49.403Z,73.89
2023-05-19T06:32:24.076Z,74.39
2023-05-19T06:32:57.581Z,74.53
2023-05-19T06:33:31.622Z,74.59
2023-05-19T06:34:04.956Z,74.03
2023-05-19T06:34:40.667Z,73.35
2023-05-19T06:35:14.250Z,73.33
2023-05-19T06:35:47.879Z,73.12
2023-05-19T06:36:21.890Z,73.04
2023-05-19T06:36:55.297Z,73.15
2023-05-19T06:37:28.872Z,73.18
2023-05-19T06:38:02.342Z,72.72
2023-05-19T06:38:36.598Z,72.91
2023-05-19T06:39:10.031Z,72.55
2023-05-19T06:39:43.673Z,72.41
2023-05-19T06:40:17.068Z,72.93
2023-05-19T06:40:50.686Z,72.47
2023-05-19T06:41:24.052Z,72.18
2023-05-19T06:41:57.572Z,72.32
2023-05-19T06:42:54.912Z,72.46
2023-05-19T06:43:37.488Z,72.67
2023-05-19T06:44:10.881Z,72.42
2023-05-19T06:44:44.166Z,72.36
2023-05-19T06:45:22.069Z,72.75
2023-05-19T06:45:56.754Z,72.95
2023-05-19T06:46:31.473Z,73.10
2023-05-19T06:47:05.135Z,73.24
2023-05-19T06:47:41.265Z,72.93
2023-05-19T06:48:14.904Z,72.89
2023-05-19T06:48:48.347Z,72.97
2023-05-19T06:49:22.111Z,72.57
2023-05-19T06:49:55.729Z,72.89
2023-05-19T06:50:31.852Z,73.09
2023-05-19T06:51:06.002Z,73.29
2023-05-19T06:51:39.524Z,73.67
2023-05-19T06:52:12.998Z,73.87
2023-05-19T06:52:47.395Z,73.80
2023-05-19T06:53:21.581Z,73.34
2023-05-19T06:53:55.888Z,73.10
2023-05-19T06:54:29.697Z,72.62
2023-05-19T06:55:03.411Z,72.98
2023-05-19T06:55:44.084Z,73.10
2023-05-19T06:56:29.316Z,72.96
2023-05-19T06:57:02.650Z,72.96
2023-05-19T06:57:36.408Z,71.30
2023-05-19T06:58:10.228Z,69.58
2023-05-19T06:58:43.953Z,70.39
2023-05-19T06:59:17.710Z,71.14
2023-05-19T06:59:51.161Z,71.64
2023-05-19T07:00:24.543Z,71.97
2023-05-19T07:00:58.733Z,72.27
2023-05-19T07:01:34.503Z,72.49
2023-05-19T07:02:08.657Z,72.60
2023-05-19T07:02:42.332Z,72.49
2023-05-19T07:03:15.810Z,72.27
2023-05-19T07:03:49.283Z,72.74
2023-05-19T07:04:22.640Z,72.81
2023-05-19T07:04:57.774Z,72.87
2023-05-19T07:05:31.427Z,73.21
2023-05-19T07:06:07.728Z,72.89
2023-05-19T07:06:41.716Z,73.21
2023-05-19T07:07:15.187Z,73.33
2023-05-19T07:07:48.669Z,72.57
2023-05-19T07:08:24.842Z,72.28
2023-05-19T07:08:58.391Z,72.03
2023-05-19T07:09:32.330Z,71.77
2023-05-19T07:10:06.614Z,71.93
2023-05-19T07:10:40.464Z,72.01
2023-05-19T07:11:16.125Z,72.06
2023-05-19T07:11:49.860Z,72.15
2023-05-19T07:12:23.282Z,72.24
2023-05-19T07:12:58.559Z,71.91
2023-05-19T07:13:33.819Z,72.50
2023-05-19T07:14:07.176Z,72.48
2023-05-19T07:14:40.584Z,72.62
2023-05-19T07:15:13.984Z,72.89
2023-05-19T07:15:49.187Z,71.82
2023-05-19T07:16:22.945Z,70.48
2023-05-19T07:16:56.358Z,70.73
2023-05-19T07:17:29.708Z,71.25
2023-05-19T07:18:03.078Z,71.24
2023-05-19T07:18:36.414Z,70.89
2023-05-19T07:19:09.828Z,71.35
2023-05-19T07:19:43.359Z,71.66
2023-05-19T07:20:16.830Z,71.00
2023-05-19T07:20:52.854Z,71.76
2023-05-19T07:21:26.928Z,71.78
2023-05-19T07:22:00.253Z,70.84
2023-05-19T07:22:36.465Z,71.04
2023-05-19T07:23:09.899Z,70.80
2023-05-19T07:23:43.296Z,71.04
2023-05-19T07:24:18.213Z,70.73
2023-05-19T07:24:52.014Z,70.62
2023-05-19T07:25:27.379Z,70.63
2023-05-19T07:26:01.477Z,70.98
2023-05-19T07:26:34.849Z,70.51
2023-05-19T07:27:08.411Z,70.19
2023-05-19T07:27:41.879Z,70.83
2023-05-19T07:28:15.245Z,71.00
2023-05-19T07:28:48.592Z,71.11
2023-05-19T07:29:21.943Z,70.90
2023-05-19T07:29:55.284Z,71.31
2023-05-19T07:30:29.123Z,70.97
2023-05-19T07:31:02.697Z,70.84
2023-05-19T07:31:35.988Z,70.19
2023-05-19T07:32:09.351Z,69.98
2023-05-19T07:32:42.729Z,69.93
2023-05-19T07:33:16.149Z,69.45
2023-05-19T07:33:50.351Z,69.84
2023-05-19T07:34:25.650Z,69.74
2023-05-19T07:34:59.037Z,69.87
2023-05-19T07:35:32.621Z,70.31
2023-05-19T07:36:08.047Z,69.05
2023-05-19T07:36:41.739Z,68.96
2023-05-19T07:37:16.197Z,69.35
2023-05-19T07:37:50.126Z,68.44
2023-05-19T07:38:23.463Z,68.76
2023-05-19T07:38:56.951Z,68.53
2023-05-19T07:39:32.450Z,67.55
2023-05-19T07:40:09.701Z,67.74
2023-05-19T07:40:43.096Z,66.73